Gagarin, Russia
Current Conditions -  °F | °C
As of 12:30 PM on Friday 31 Oct 2014 (Local Time) from UUBW Reporting Station
Haze Haze  
Wind Chill: 37°   Ceiling: 10000
Heat Index: 41°   Visibility: 3mi
Dew Point: 30°   Wind: 7mph
Humidity: 65%   Direction: 320°NW
Pressure: 30.09"   Gusts: NA
Location:  55.55°N, 35°E
Report Text: UUBW 310930Z 32003MPS 5000 HZ SCT023 BKN100 05/M01 Q1019 NOSIGRMK SC060
Loading
Personal Weather Stations






























Interactive Weather Map
Tropical Storm Tracking
New forecast layout! Learn more

10-Day Weather Forecast

Advertisements
Track Severe Weather on mobile